Time;durP1;ratioP1;P1;durP2;ratioP2;P2;SDS_P1;SDS_P2;PMS_P1;PMS_P2;Temp;Humidity;BMP_temperature;BMP_pressure;BME280_temperature;BME280_humidity;BME280_pressure;Samples;Min_cycle;Max_cycle;Signal;HPM_P1;HPM_P2
2023/09/23 00:03:13;;;;;;;4.13;1.02;;;;;;;16.56;72.18;100757.09;10272259;28;96834;-75
2023/09/23 00:08:18;;;;;;;;;;;;;;;16.81;72.49;100742.34;10269087;28;98025;-75
2023/09/23 00:13:21;;;;;;;2.57;1.03;;;;;;;16.75;71.06;100742.69;10265022;28;97086;-75
2023/09/23 00:18:26;;;;;;;4.57;1.00;;;;;;;16.80;71.24;100756.59;10276141;28;96789;-75
2023/09/23 00:23:30;;;;;;;3.13;1.13;;;;;;;16.82;70.55;100753.84;10276801;28;96877;-75
2023/09/23 00:28:34;;;;;;;5.37;1.30;;;;;;;16.65;70.99;100738.81;10268004;28;97008;-75
2023/09/23 00:33:39;;;;;;;3.55;1.08;;;;;;;16.65;71.36;100746.78;10259091;28;97090;-75
2023/09/23 00:38:43;;;;;;;1.30;0.80;;;;;;;16.77;70.99;100747.94;10264958;28;98796;-75
2023/09/23 00:43:48;;;;;;;3.03;1.00;;;;;;;16.49;71.60;100755.72;10270071;28;96892;-75
2023/09/23 00:48:53;;;;;;;2.40;1.10;;;;;;;16.42;71.50;100751.69;10266060;28;97227;-75
2023/09/23 00:53:57;;;;;;;2.88;1.30;;;;;;;16.25;72.05;100751.75;10257352;28;96954;-75
2023/09/23 00:59:00;;;;;;;4.63;0.90;;;;;;;16.18;72.58;100751.22;10265958;28;97382;-75
2023/09/23 01:04:08;;;;;;;2.22;1.20;;;;;;;16.23;72.02;100748.31;10259629;28;97260;-75
2023/09/23 01:09:14;;;;;;;3.67;1.10;;;;;;;16.29;71.78;100753.31;10268297;28;96858;-75
2023/09/23 01:14:21;;;;;;;4.07;1.15;;;;;;;16.31;71.60;100752.25;10270275;28;97186;-75
2023/09/23 01:19:26;;;;;;;5.22;1.38;;;;;;;16.21;72.27;100747.53;10268446;28;98925;-75
2023/09/23 01:24:32;;;;;;;3.67;0.90;;;;;;;16.20;72.20;100772.38;10273284;28;99645;-75
2023/09/23 01:29:35;;;;;;;2.45;1.35;;;;;;;15.92;72.78;100767.72;10267816;28;99912;-76
2023/09/23 01:34:39;;;;;;;3.20;1.20;;;;;;;15.82;72.56;100780.59;10268921;28;97709;-75
2023/09/23 01:39:47;;;;;;;2.10;0.80;;;;;;;15.65;73.08;100775.31;10259808;28;96883;-75
2023/09/23 01:44:50;;;;;;;2.25;1.00;;;;;;;15.69;73.29;100766.25;10283066;28;97322;-74
2023/09/23 01:49:54;;;;;;;2.08;1.08;;;;;;;15.93;72.57;100763.25;10280774;28;98522;-74
2023/09/23 01:54:59;;;;;;;5.60;1.10;;;;;;;16.09;71.72;100756.16;10283400;28;96857;-75
2023/09/23 02:00:04;;;;;;;3.15;0.90;;;;;;;16.23;71.50;100758.94;10266363;28;96877;-74
2023/09/23 02:05:08;;;;;;;3.80;1.00;;;;;;;16.03;71.90;100761.81;10265611;28;97000;-75
2023/09/23 02:10:15;;;;;;;1.63;1.00;;;;;;;15.82;72.30;100756.69;10265946;28;96944;-74
2023/09/23 02:15:18;;;;;;;2.40;1.15;;;;;;;15.50;73.60;100761.97;10262231;28;99063;-75
2023/09/23 02:20:21;;;;;;;3.80;1.15;;;;;;;15.64;72.76;100760.34;10275460;28;98544;-75
2023/09/23 02:25:27;;;;;;;1.47;0.90;;;;;;;15.66;72.91;100773.53;10278616;28;96904;-75
2023/09/23 02:30:32;;;;;;;4.57;1.15;;;;;;;15.68;72.44;100771.66;10278422;28;98670;-75
2023/09/23 02:35:35;;;;;;;2.17;0.80;;;;;;;15.53;73.09;100759.16;10266445;28;98849;-75
2023/09/23 02:40:43;;;;;;;2.17;1.00;;;;;;;15.39;72.98;100767.00;10274584;28;98603;-74
2023/09/23 02:45:49;;;;;;;3.03;1.10;;;;;;;15.35;73.52;100766.28;10264426;28;96763;-75
2023/09/23 02:50:53;;;;;;;3.50;1.20;;;;;;;15.64;72.39;100767.44;10269432;28;96888;-75
2023/09/23 02:56:08;;;;;;;2.40;1.38;;;;;;;15.72;72.46;100766.09;10275986;28;96818;-75
2023/09/23 03:01:14;;;;;;;2.78;1.25;;;;;;;15.79;71.90;100751.56;10277708;28;96761;-75
2023/09/23 03:06:18;;;;;;;3.42;1.60;;;;;;;15.85;71.93;100753.91;10264218;28;96730;-75
2023/09/23 03:11:26;;;;;;;2.30;1.02;;;;;;;15.86;71.96;100757.41;10288339;28;96921;-75
2023/09/23 03:16:30;;;;;;;4.07;1.10;;;;;;;15.59;72.39;100761.50;10276987;28;96873;-75
2023/09/23 03:21:35;;;;;;;3.15;0.80;;;;;;;15.62;71.93;100766.66;10256981;28;98418;-74
2023/09/23 03:26:40;;;;;;;;;;;;;;;15.75;72.16;100775.69;10285664;28;97170;-75
2023/09/23 03:31:44;;;;;;;4.20;0.80;;;;;;;15.54;71.73;100771.50;10278957;28;99044;-75
2023/09/23 03:36:47;;;;;;;4.88;1.20;;;;;;;15.32;72.55;100777.03;10286669;28;98877;-75
2023/09/23 03:41:52;;;;;;;3.83;1.30;;;;;;;15.23;73.22;100772.19;10275762;28;96995;-75
2023/09/23 03:46:55;;;;;;;2.83;1.48;;;;;;;15.35;73.57;100771.59;10266675;28;97067;-75
2023/09/23 03:51:59;;;;;;;2.03;0.88;;;;;;;15.33;73.00;100768.16;10264274;28;96822;-75
2023/09/23 03:57:05;;;;;;;3.58;1.10;;;;;;;15.36;73.36;100773.31;10266165;28;99016;-75
2023/09/23 04:02:09;;;;;;;4.13;1.42;;;;;;;15.25;74.13;100774.75;10275273;28;98670;-75
2023/09/23 04:07:16;;;;;;;2.50;1.10;;;;;;;15.40;73.26;100769.56;10262593;28;96896;-75
2023/09/23 04:12:20;;;;;;;4.40;1.60;;;;;;;15.36;73.25;100770.66;10270254;28;96917;-75
2023/09/23 04:17:24;;;;;;;2.33;1.15;;;;;;;15.36;73.52;100764.47;10260685;28;96832;-75
2023/09/23 04:22:27;;;;;;;3.17;1.67;;;;;;;15.27;74.43;100771.13;10288356;28;96861;-76
2023/09/23 04:27:33;;;;;;;3.80;1.65;;;;;;;15.13;75.37;100765.59;10272800;28;96886;-76
2023/09/23 04:32:39;;;;;;;5.53;1.58;;;;;;;15.08;75.81;100777.41;10266656;28;96749;-75
2023/09/23 04:37:42;;;;;;;3.35;1.40;;;;;;;15.21;75.27;100774.06;10260446;28;96815;-75
2023/09/23 04:42:48;;;;;;;2.35;1.10;;;;;;;15.30;74.24;100789.50;10269875;28;96856;-75
2023/09/23 04:47:51;;;;;;;3.35;1.58;;;;;;;15.39;73.83;100794.34;10272056;28;97796;-75
2023/09/23 04:52:55;;;;;;;4.00;1.30;;;;;;;15.54;73.45;100787.44;10255549;28;98789;-75
2023/09/23 04:57:59;;;;;;;3.28;1.33;;;;;;;15.51;73.83;100796.38;10256458;28;96804;-75
2023/09/23 05:03:03;;;;;;;3.38;1.05;;;;;;;15.42;74.43;100785.41;10249351;28;96878;-76
2023/09/23 05:08:09;;;;;;;4.93;1.40;;;;;;;15.46;74.35;100785.16;10272827;28;96835;-75
2023/09/23 05:13:17;;;;;;;5.75;1.20;;;;;;;15.41;74.56;100802.22;10273995;28;98529;-75
2023/09/23 05:18:23;;;;;;;3.15;1.38;;;;;;;15.37;74.62;100800.69;10267520;28;96824;-76
2023/09/23 05:23:26;;;;;;;3.80;1.35;;;;;;;15.46;74.59;100797.53;10258413;28;98757;-76
2023/09/23 05:28:31;;;;;;;3.65;1.13;;;;;;;15.41;74.41;100805.75;10268463;28;98762;-75
2023/09/23 05:33:35;;;;;;;8.95;1.33;;;;;;;15.42;74.79;100807.47;10266777;28;98433;-75
2023/09/23 05:38:38;;;;;;;5.30;1.20;;;;;;;15.41;74.23;100808.41;10265832;28;96945;-75
2023/09/23 05:43:43;;;;;;;4.65;1.30;;;;;;;15.47;74.57;100815.19;10256066;28;99072;-77
2023/09/23 05:48:48;;;;;;;2.20;1.23;;;;;;;15.48;74.14;100824.84;10265315;28;96855;-76
2023/09/23 05:53:51;;;;;;;6.53;1.63;;;;;;;15.32;74.29;100816.81;10272731;28;97304;-75
2023/09/23 05:58:56;;;;;;;1.92;1.10;;;;;;;15.28;74.28;100817.06;10266431;28;96749;-76
2023/09/23 06:03:59;;;;;;;;;;;;;;;15.27;74.86;100829.44;10272270;28;96837;-75
2023/09/23 06:09:03;;;;;;;3.70;1.50;;;;;;;15.15;74.70;100835.31;10270436;28;96799;-75
2023/09/23 06:14:09;;;;;;;5.30;1.40;;;;;;;15.00;74.78;100849.31;10259319;28;96960;-75
2023/09/23 06:19:12;;;;;;;3.85;1.55;;;;;;;15.20;74.20;100845.72;10266848;28;96955;-76
2023/09/23 06:24:16;;;;;;;3.08;1.20;;;;;;;15.22;74.53;100851.78;10284656;28;98287;-74
2023/09/23 06:29:20;;;;;;;3.20;1.08;;;;;;;15.26;73.83;100848.09;10258265;28;96791;-75
2023/09/23 06:34:24;;;;;;;3.38;1.10;;;;;;;15.23;74.23;100859.69;10258666;28;96830;-75
2023/09/23 06:39:27;;;;;;;4.10;1.10;;;;;;;15.12;74.56;100867.28;10262491;28;97227;-75
2023/09/23 06:44:32;;;;;;;4.75;1.02;;;;;;;15.07;75.06;100879.03;10279770;28;96899;-75
2023/09/23 06:49:35;;;;;;;;;;;;;;;14.93;76.03;100881.47;10271440;28;99135;-76
2023/09/23 06:54:38;;;;;;;4.88;1.10;;;;;;;14.84;75.23;100874.84;10269275;28;96817;-76
2023/09/23 06:59:45;;;;;;;3.58;1.02;;;;;;;14.85;75.06;100878.34;10264414;28;98646;-76
2023/09/23 07:04:49;;;;;;;1.52;1.08;;;;;;;14.84;74.74;100877.47;10267112;28;96843;-76
2023/09/23 07:09:52;;;;;;;3.60;1.27;;;;;;;15.05;74.32;100875.59;10268855;28;96846;-76
2023/09/23 07:14:58;;;;;;;2.50;1.00;;;;;;;15.17;74.27;100891.78;10270170;28;96833;-76
2023/09/23 07:20:01;;;;;;;2.40;1.00;;;;;;;15.37;74.04;100881.09;10262487;28;99258;-79
2023/09/23 07:25:06;;;;;;;2.40;1.10;;;;;;;15.52;73.55;100884.78;10263843;28;97607;-77
2023/09/23 07:30:12;;;;;;;3.05;1.10;;;;;;;16.26;72.05;100900.38;10273508;28;97007;-78
2023/09/23 07:35:17;;;;;;;2.63;0.90;;;;;;;17.94;69.08;100910.41;10268436;28;96998;-78
2023/09/23 07:52:47;;;;;;;2.55;0.95;;;;;;;22.69;55.37;100917.25;10247926;28;98480;-78
2023/09/23 07:57:51;;;;;;;1.92;0.95;;;;;;;22.49;56.15;100919.69;10218693;28;96836;-78
2023/09/23 08:02:55;;;;;;;1.50;0.93;;;;;;;22.64;55.96;100928.38;10215066;28;96901;-78
2023/09/23 08:08:00;;;;;;;2.43;1.10;;;;;;;23.58;53.74;100919.75;10211174;28;98860;-77
2023/09/23 08:13:04;;;;;;;3.35;1.25;;;;;;;23.59;53.13;100937.59;10203099;28;97473;-77
2023/09/23 08:18:07;;;;;;;2.63;1.25;;;;;;;25.04;50.58;100934.94;10205207;28;97639;-78
2023/09/23 08:23:12;;;;;;;3.53;1.10;;;;;;;24.58;50.11;100938.94;10209304;28;99366;-77
2023/09/23 08:28:16;;;;;;;3.63;1.20;;;;;;;25.00;48.91;100938.94;10208136;28;99793;-77
2023/09/23 08:33:19;;;;;;;2.85;1.10;;;;;;;25.64;46.90;100932.97;10206022;28;97031;-78
2023/09/23 08:38:25;;;;;;;2.58;1.30;;;;;;;25.72;46.57;100946.66;10207446;28;98557;-77
2023/09/23 08:43:36;;;;;;;2.83;1.30;;;;;;;27.03;43.75;100941.38;10204616;28;97881;-77
2023/09/23 08:48:40;;;;;;;3.05;1.60;;;;;;;27.59;43.92;100939.38;10203459;28;96830;-78
2023/09/23 08:53:46;;;;;;;3.03;1.50;;;;;;;27.24;42.97;100941.13;10177335;28;97106;-79
2023/09/23 08:58:50;;;;;;;3.15;1.27;;;;;;;27.61;42.49;100945.47;10180449;28;98342;-78
2023/09/23 09:03:54;;;;;;;2.50;1.55;;;;;;;28.28;40.64;100942.25;10188820;28;98410;-77
2023/09/23 09:09:02;;;;;;;2.15;1.40;;;;;;;28.37;39.62;100952.16;10180712;28;98637;-78
2023/09/23 09:14:07;;;;;;;3.83;1.45;;;;;;;28.27;40.15;100943.25;10183653;28;97049;-78
2023/09/23 09:19:11;;;;;;;2.47;1.52;;;;;;;27.84;39.81;100952.16;10178392;28;98551;-77
2023/09/23 09:24:16;;;;;;;3.53;1.50;;;;;;;29.02;38.39;100957.00;10173347;28;97033;-77
2023/09/23 09:29:20;;;;;;;3.10;1.30;;;;;;;28.80;37.86;100952.13;10174674;28;96890;-77
2023/09/23 09:34:25;;;;;;;3.65;1.40;;;;;;;28.58;38.15;100947.25;10180159;28;99452;-78
2023/09/23 09:39:34;;;;;;;3.95;1.23;;;;;;;28.69;38.14;100952.38;10176952;28;98040;-77
2023/09/23 09:44:38;;;;;;;2.70;1.30;;;;;;;30.39;35.75;100951.09;10185910;28;98155;-78
2023/09/23 09:49:42;;;;;;;3.25;1.38;;;;;;;29.48;36.91;100939.41;10183174;28;97051;-79
2023/09/23 09:54:48;;;;;;;4.38;1.65;;;;;;;29.69;36.44;100929.00;10184291;28;96977;-78
2023/09/23 09:59:52;;;;;;;2.58;1.33;;;;;;;31.22;34.22;100937.84;10180981;28;96993;-78
2023/09/23 10:05:03;;;;;;;2.83;1.13;;;;;;;30.76;34.98;100935.97;10178731;28;97135;-77
2023/09/23 10:10:13;;;;;;;1.67;0.93;;;;;;;30.55;34.46;100932.06;10175499;28;97105;-77
2023/09/23 10:15:25;;;;;;;3.45;1.52;;;;;;;30.33;34.23;100943.66;10170575;28;100913;-77
2023/09/23 10:20:34;;;;;;;2.53;1.13;;;;;;;30.99;33.67;100931.47;10172738;28;99563;-77
2023/09/23 10:25:43;;;;;;;3.30;1.27;;;;;;;30.94;34.08;100927.63;10173063;28;96930;-78
2023/09/23 10:30:57;;;;;;;5.38;2.05;;;;;;;31.04;33.28;100920.09;10173774;28;98619;-77
2023/09/23 10:36:01;;;;;;;4.95;1.70;;;;;;;31.11;33.85;100921.09;10175497;28;97121;-78
2023/09/23 10:41:06;;;;;;;3.55;1.55;;;;;;;31.90;32.99;100915.41;10176224;28;96791;-77
2023/09/23 10:46:10;;;;;;;3.00;1.52;;;;;;;32.33;32.39;100923.75;10173844;28;96908;-79
2023/09/23 10:51:14;;;;;;;3.75;1.70;;;;;;;31.17;33.56;100910.34;10174223;28;97357;-78
2023/09/23 10:56:22;;;;;;;2.80;1.67;;;;;;;32.38;31.74;100904.13;10175243;28;97486;-76
2023/09/23 11:01:26;;;;;;;2.95;1.52;;;;;;;32.08;32.90;100902.34;10172092;28;96836;-78
2023/09/23 11:06:29;;;;;;;4.07;1.30;;;;;;;32.70;31.65;100897.47;10173531;28;98754;-80
2023/09/23 11:11:36;;;;;;;3.13;1.63;;;;;;;33.47;30.51;100895.00;10172020;28;97759;-79
2023/09/23 11:16:44;;;;;;;4.47;1.70;;;;;;;33.99;30.54;100891.19;10175158;28;96856;-82
2023/09/23 11:21:48;;;;;;;3.35;1.65;;;;;;;34.39;30.08;100888.56;10170128;28;97007;-78
2023/09/23 11:26:53;;;;;;;3.05;1.30;;;;;;;32.74;31.42;100880.56;10175555;28;98772;-78
2023/09/23 11:31:57;;;;;;;2.60;1.23;;;;;;;33.70;30.42;100875.72;10174488;28;96849;-78
2023/09/23 11:37:01;;;;;;;2.47;0.98;;;;;;;32.26;30.79;100859.25;10170516;28;96847;-78
2023/09/23 11:42:06;;;;;;;4.90;1.60;;;;;;;32.99;30.36;100857.44;10177515;28;97593;-78
2023/09/23 16:37:36;;;;;;;1.73;1.02;;;;;;;25.48;44.52;100635.38;10392295;28;96620;-76
2023/09/23 16:42:39;;;;;;;1.95;0.80;;;;;;;25.54;44.66;100637.47;10383573;27;97846;-76
2023/09/23 16:47:43;;;;;;;1.63;1.00;;;;;;;25.55;44.79;100631.91;10396993;28;98677;-77
2023/09/23 16:52:48;;;;;;;1.17;0.80;;;;;;;25.59;45.07;100637.88;10391141;28;97144;-77
2023/09/23 16:57:52;;;;;;;2.15;0.90;;;;;;;25.58;45.34;100638.88;10375054;28;98674;-76
2023/09/23 17:02:55;;;;;;;2.13;1.20;;;;;;;25.54;45.73;100635.63;10367475;28;98805;-77
2023/09/23 17:08:00;;;;;;;2.22;1.10;;;;;;;25.48;45.97;100648.84;10392737;28;97004;-77
2023/09/23 17:13:03;;;;;;;1.58;0.80;;;;;;;25.29;47.14;100641.66;10388843;27;98709;-77
2023/09/23 17:18:07;;;;;;;2.40;1.30;;;;;;;25.12;47.75;100655.00;10391088;27;99094;-77
2023/09/23 17:23:12;;;;;;;2.78;1.27;;;;;;;24.92;48.31;100664.03;10393534;28;97453;-77
2023/09/23 17:28:15;;;;;;;2.17;1.33;;;;;;;24.74;48.80;100653.97;10382628;27;96931;-77
2023/09/23 17:33:19;;;;;;;2.00;1.13;;;;;;;24.67;49.01;100655.53;10384649;27;96975;-81
2023/09/23 17:38:24;;;;;;;3.22;1.48;;;;;;;24.55;49.33;100662.03;10365034;27;98541;-75
2023/09/23 17:43:27;;;;;;;2.65;1.30;;;;;;;24.45;49.38;100661.19;10356050;28;97390;-75
2023/09/23 17:48:30;;;;;;;2.73;1.20;;;;;;;24.35;49.90;100667.53;10337999;28;98519;-75
2023/09/23 17:53:35;;;;;;;3.10;1.47;;;;;;;24.21;50.64;100666.03;10340398;28;96879;-75
2023/09/23 17:58:38;;;;;;;60.83;52.45;;;;;;;24.42;50.63;100665.97;10332845;28;96877;-75
2023/09/23 18:03:42;;;;;;;873.00;601.73;;;;;;;24.20;51.45;100671.56;10325321;28;98539;-76
2023/09/23 18:08:47;;;;;;;37.42;32.25;;;;;;;24.29;51.86;100674.31;10341328;28;97163;-73
2023/09/23 18:13:51;;;;;;;12.20;9.98;;;;;;;24.23;52.20;100682.03;10338980;28;97880;-73
2023/09/23 18:18:54;;;;;;;8.80;7.05;;;;;;;24.18;52.74;100689.66;10322436;28;96782;-72
2023/09/23 18:23:59;;;;;;;12.47;8.23;;;;;;;24.02;53.12;100695.56;10349071;28;96877;-71
2023/09/23 18:29:03;;;;;;;1999.90;999.90;;;;;;;23.83;53.89;100700.84;10341947;28;99091;-72
2023/09/23 18:34:07;;;;;;;351.45;267.67;;;;;;;23.60;54.42;100708.22;10352901;28;96906;-73
2023/09/23 18:39:12;;;;;;;897.53;636.75;;;;;;;23.48;54.75;100716.44;10377228;27;97028;-72
2023/09/23 18:44:15;;;;;;;551.25;368.58;;;;;;;23.35;54.93;100718.47;10350166;28;96762;-71
2023/09/23 18:49:18;;;;;;;56.80;50.80;;;;;;;23.10;56.28;100713.47;10354945;28;97016;-71
2023/09/23 18:54:23;;;;;;;25.10;21.70;;;;;;;22.77;56.65;100719.78;10353358;28;97155;-71
2023/09/23 18:59:28;;;;;;;14.18;12.07;;;;;;;22.58;57.12;100727.63;10361788;28;97378;-72
2023/09/23 19:04:32;;;;;;;7.88;5.45;;;;;;;22.42;57.33;100732.53;10369837;28;96849;-72
2023/09/23 19:09:39;;;;;;;5.10;3.85;;;;;;;22.30;57.49;100741.56;10354868;28;96812;-72
2023/09/23 19:14:42;;;;;;;3.95;2.42;;;;;;;22.19;57.56;100744.25;10354012;28;98710;-72
2023/09/23 19:19:46;;;;;;;3.92;2.33;;;;;;;22.04;57.83;100756.22;10363937;28;98468;-72
2023/09/23 19:24:51;;;;;;;3.92;2.30;;;;;;;21.93;58.07;100757.03;10364564;28;96967;-72
2023/09/23 19:29:54;;;;;;;4.93;2.20;;;;;;;21.87;57.85;100761.97;10362458;28;97583;-72
2023/09/23 19:34:58;;;;;;;3.72;2.22;;;;;;;21.61;58.45;100774.72;10370490;28;96882;-71
2023/09/23 19:40:05;;;;;;;;;;;;;;;21.41;59.98;100781.59;10344206;28;96930;-72
2023/09/23 19:45:09;;;;;;;2.88;1.67;;;;;;;21.25;59.27;100782.88;10365834;28;96989;-72
2023/09/23 19:50:13;;;;;;;4.10;1.95;;;;;;;21.17;59.25;100790.63;10339292;28;96794;-72
2023/09/23 19:55:19;;;;;;;;;;;;;;;21.01;61.00;100796.25;10329511;28;96848;-72
2023/09/23 20:00:27;;;;;;;2.83;1.48;;;;;;;20.83;60.01;100794.91;10322068;28;98801;-72
2023/09/23 20:05:31;;;;;;;2.35;1.58;;;;;;;20.80;60.38;100787.13;10331140;28;101051;-72
2023/09/23 20:10:36;;;;;;;4.00;1.85;;;;;;;20.64;61.00;100799.03;10333855;28;97040;-72
2023/09/23 20:15:40;;;;;;;3.40;1.85;;;;;;;20.43;61.51;100811.28;10349992;28;96991;-72
2023/09/23 20:20:47;;;;;;;3.50;2.20;;;;;;;20.31;62.24;100811.19;10329129;28;98909;-73
2023/09/23 20:25:52;;;;;;;5.55;2.22;;;;;;;20.53;61.62;100815.00;10331379;28;98859;-71
2023/09/23 20:30:59;;;;;;;3.80;1.98;;;;;;;20.64;61.17;100815.94;10330369;28;98047;-72
2023/09/23 20:36:03;;;;;;;4.95;2.10;;;;;;;20.78;61.00;100825.63;10345699;28;97019;-72
2023/09/23 20:41:07;;;;;;;4.07;1.87;;;;;;;20.61;61.55;100824.19;10328569;28;98614;-72
2023/09/23 20:46:11;;;;;;;3.78;1.80;;;;;;;20.12;63.03;100823.22;10328024;28;96802;-73
2023/09/23 20:51:16;;;;;;;6.57;2.25;;;;;;;20.31;62.75;100821.88;10332433;28;98755;-72
2023/09/23 20:56:21;;;;;;;5.57;2.33;;;;;;;20.49;62.21;100821.53;10328617;28;96892;-72
2023/09/23 21:01:24;;;;;;;4.25;1.75;;;;;;;20.23;62.91;100826.03;10333119;28;97955;-72
2023/09/23 21:06:28;;;;;;;4.30;2.20;;;;;;;19.90;63.92;100823.88;10334782;28;97764;-72
2023/09/23 21:11:34;;;;;;;3.47;1.90;;;;;;;19.73;64.43;100824.19;10337930;28;96973;-72
2023/09/23 21:16:38;;;;;;;2.95;1.83;;;;;;;20.02;63.74;100815.00;10323049;28;96716;-71
2023/09/23 21:21:41;;;;;;;4.57;2.00;;;;;;;19.73;64.46;100817.97;10339826;28;97076;-71
2023/09/23 21:26:46;;;;;;;2.88;1.73;;;;;;;19.84;64.50;100818.94;10369560;28;97275;-72
2023/09/23 21:31:49;;;;;;;3.50;1.80;;;;;;;20.08;63.78;100811.91;10357761;28;97574;-71
2023/09/23 21:36:52;;;;;;;2.55;1.70;;;;;;;19.97;63.84;100814.47;10353920;28;98069;-71
2023/09/23 21:41:57;;;;;;;4.93;2.20;;;;;;;19.40;65.68;100818.44;10352309;28;98891;-71
2023/09/23 21:47:00;;;;;;;;;;;;;;;19.62;66.48;100815.16;10343730;28;96982;-71
2023/09/23 21:52:03;;;;;;;2.90;1.65;;;;;;;19.79;64.45;100813.06;10362709;28;97099;-72
2023/09/23 21:57:08;;;;;;;6.13;2.10;;;;;;;19.68;64.79;100820.97;10358572;28;96769;-71
2023/09/23 22:02:11;;;;;;;4.85;1.85;;;;;;;19.79;64.68;100818.41;10348444;28;96819;-71
2023/09/23 22:07:14;;;;;;;3.70;1.85;;;;;;;19.82;64.62;100814.69;10353198;28;96877;-71
2023/09/23 22:12:19;;;;;;;5.13;1.98;;;;;;;19.81;64.67;100821.84;10362451;28;98770;-71
2023/09/23 22:17:25;;;;;;;;;;;;;;;19.77;65.80;100822.16;10354568;28;97108;-71
2023/09/23 22:22:29;;;;;;;4.25;2.20;;;;;;;19.65;64.64;100815.81;10351094;28;98475;-71
2023/09/23 22:27:33;;;;;;;2.95;1.98;;;;;;;19.54;65.16;100815.72;10348150;28;97543;-71
2023/09/23 22:32:37;;;;;;;5.35;1.90;;;;;;;19.33;66.48;100819.78;10338462;28;98197;-72
2023/09/23 22:37:41;;;;;;;3.92;2.20;;;;;;;19.20;67.30;100814.38;10353659;28;96817;-72
2023/09/23 22:42:46;;;;;;;4.18;2.00;;;;;;;19.06;67.21;100816.28;10345526;28;96846;-72
2023/09/23 22:47:50;;;;;;;5.40;1.95;;;;;;;18.92;67.81;100821.66;10337512;28;98468;-72
2023/09/23 22:52:54;;;;;;;4.40;2.33;;;;;;;18.82;68.52;100824.03;10334521;28;96799;-72
2023/09/23 22:57:59;;;;;;;4.28;1.67;;;;;;;18.70;68.49;100826.63;10335410;28;96793;-72
2023/09/23 23:03:03;;;;;;;3.70;1.77;;;;;;;18.61;69.28;100824.56;10335209;28;96829;-72
2023/09/23 23:08:07;;;;;;;;;;;;;;;18.53;70.91;100821.50;10351616;28;96766;-72
2023/09/23 23:13:12;;;;;;;3.65;1.85;;;;;;;18.40;70.16;100821.41;10340791;28;97485;-72
2023/09/23 23:18:16;;;;;;;4.03;2.05;;;;;;;18.30;71.22;100819.41;10351757;28;96950;-72
2023/09/23 23:23:19;;;;;;;3.42;1.85;;;;;;;18.24;71.48;100814.47;10356300;28;96896;-72
2023/09/23 23:28:25;;;;;;;5.22;2.10;;;;;;;18.13;70.92;100808.00;10348489;28;99450;-72
2023/09/23 23:33:28;;;;;;;5.55;1.67;;;;;;;18.15;70.82;100795.44;10347218;28;96814;-72
2023/09/23 23:38:32;;;;;;;3.90;2.30;;;;;;;18.28;70.13;100808.81;10337786;28;96906;-72
2023/09/23 23:43:36;;;;;;;3.47;1.75;;;;;;;18.11;71.03;100798.38;10343633;28;96882;-72
2023/09/23 23:48:39;;;;;;;4.85;1.92;;;;;;;18.10;71.26;100797.53;10334750;28;96841;-71
2023/09/23 23:53:43;;;;;;;4.65;1.60;;;;;;;17.98;72.84;100808.06;10340046;28;96997;-72
2023/09/23 23:58:48;;;;;;;3.30;1.77;;;;;;;17.84;73.53;100800.06;10348550;28;99658;-73
